Shoshone, California Weather observations

Data are for observation ending at time listed.
 Day   Time    Ave.   Ave.  Ave.  Vector   Max.   Stn.    Total    Solar   Ave.  
  of    of     Air    Rel.  Wind   Wind    Wind   Baro.  Precip.   Rad.    Soil  
Year   Day     Temp.  Hum.  Speed  Dir.    Gust   Pres.                    Temp. 
2015   (PST)    F      %     mph   deg.    mph     mb.     in.     W/m2     F   
------------------------------------------------------------------------------
  25    5:00   42.5    44    1.5    78      6.0    975     0.00       0    99999.0
  25    6:00   42.6    46    1.3    73      5.3    975     0.00       0    99999.0
  25    7:00   43.7    45    1.7    55      5.9    976     0.00       2    99999.0
  25    8:00   46.1    45    0.7    73      4.3    976     0.00      87    99999.0
  25    9:00   56.5    34    2.2   304      6.7    977     0.00     277    99999.0
  25   10:00   63.6    27    4.2   313     10.0    977     0.00     445    99999.0
  25   11:00   67.3    23    4.5    16      9.8    976     0.00     570    99999.0
  25   12:00   71.4    20    5.7   359     11.5    975     0.00     634    99999.0
  25   13:00   73.8    18    3.7    57      9.3    974     0.00     637    99999.0
  25   14:00   76.4    16    3.1    74      8.0    973     0.00     572    99999.0
  25   15:00   78.4    15    3.4    77      8.8    972     0.00     450    99999.0
  25   16:00   79.4    14    2.7    75      6.6    972     0.00     282    99999.0
  25   17:00   75.7    17    1.7    71      4.9    971     0.00      71    99999.0
  25   18:00   65.8    25    1.1    62      4.7    971     0.00       2    99999.0
  25   19:00   61.0    30    0.9    58      4.1    971     0.00       1    99999.0
  25   20:00   57.1    36    1.1    72      5.2    972     0.00       1    99999.0
  25   21:00   54.2    41    1.2   319      3.9    972     0.00       1    99999.0
  25   22:00   51.7    46    1.3    51      4.2    973     0.00       1    99999.0
  25   23:00   49.3    49    0.9    89      4.4    973     0.00       1    99999.0
  26    0:00   48.2    50    1.6    64      4.3    973     0.00       1    99999.0
  26    1:00   44.4    57    0.8   345      3.8    973     0.00       0    99999.0
  26    2:00   44.2    59    0.2   351      2.8    973     0.00       0    99999.0
  26    3:00   42.3    61    0.6   346      3.8    973     0.00       0    99999.0
  26    4:00   41.7    64    0.4   337      3.9    973     0.00       0    99999.0

Return to Shoshone, California graphs page.


Western Regional Climate Center,wrcc@dri.edu